sensor_id;sensor_type;location;lat;lon;timestamp;pressure;altitude;pressure_sealevel;temperature;humidity
76026;BME280;64721;51.084;17.242;2022-11-25T00:00:16;1002.34;;;5.88;73.65
76026;BME280;64721;51.084;17.242;2022-11-25T00:02:13;1002.29;;;5.78;73.87
76026;BME280;64721;51.084;17.242;2022-11-25T00:04:10;1002.32;;;5.65;74.19
76026;BME280;64721;51.084;17.242;2022-11-25T00:06:14;1002.31;;;5.78;73.78
76026;BME280;64721;51.084;17.242;2022-11-25T00:08:13;1002.35;;;5.83;73.64
76026;BME280;64721;51.084;17.242;2022-11-25T00:10:13;1002.38;;;5.79;73.97
76026;BME280;64721;51.084;17.242;2022-11-25T00:12:10;1002.39;;;5.84;73.92
76026;BME280;64721;51.084;17.242;2022-11-25T00:14:08;1002.37;;;5.89;73.76
76026;BME280;64721;51.084;17.242;2022-11-25T00:15:53;1002.37;;;6.03;73.53
76026;BME280;64721;51.084;17.242;2022-11-25T00:17:50;1002.39;;;6.07;73.31
76026;BME280;64721;51.084;17.242;2022-11-25T00:19:48;1002.40;;;6.03;73.59
76026;BME280;64721;51.084;17.242;2022-11-25T00:21:45;1002.38;;;5.88;74.05
76026;BME280;64721;51.084;17.242;2022-11-25T00:23:43;1002.41;;;5.92;74.21
76026;BME280;64721;51.084;17.242;2022-11-25T00:25:53;1002.40;;;5.97;73.98
76026;BME280;64721;51.084;17.242;2022-11-25T00:27:39;1002.35;;;6.00;74.14
76026;BME280;64721;51.084;17.242;2022-11-25T00:29:38;1002.35;;;5.98;74.11
76026;BME280;64721;51.084;17.242;2022-11-25T00:31:50;1002.39;;;6.11;73.89
76026;BME280;64721;51.084;17.242;2022-11-25T00:33:40;1002.35;;;6.19;73.84
76026;BME280;64721;51.084;17.242;2022-11-25T00:35:38;1002.33;;;6.13;73.85
76026;BME280;64721;51.084;17.242;2022-11-25T00:37:39;1002.33;;;6.13;74.09
76026;BME280;64721;51.084;17.242;2022-11-25T00:39:49;1002.35;;;6.06;75.28
76026;BME280;64721;51.084;17.242;2022-11-25T00:41:48;1002.38;;;6.28;74.29
76026;BME280;64721;51.084;17.242;2022-11-25T00:43:32;1002.40;;;6.21;74.24
76026;BME280;64721;51.084;17.242;2022-11-25T00:45:31;1002.43;;;5.99;74.70
76026;BME280;64721;51.084;17.242;2022-11-25T00:47:41;1002.43;;;5.86;75.71
76026;BME280;64721;51.084;17.242;2022-11-25T00:49:38;1002.45;;;5.85;75.61
76026;BME280;64721;51.084;17.242;2022-11-25T00:51:22;1002.44;;;5.92;75.63
76026;BME280;64721;51.084;17.242;2022-11-25T00:53:06;1002.43;;;5.94;75.68
76026;BME280;64721;51.084;17.242;2022-11-25T00:55:18;1002.45;;;5.98;75.59
76026;BME280;64721;51.084;17.242;2022-11-25T00:57:06;1002.45;;;6.08;75.78
76026;BME280;64721;51.084;17.242;2022-11-25T00:58:59;1002.47;;;6.11;75.52
76026;BME280;64721;51.084;17.242;2022-11-25T01:00:43;1002.48;;;6.16;75.41
76026;BME280;64721;51.084;17.242;2022-11-25T01:02:54;1002.50;;;6.30;75.10
76026;BME280;64721;51.084;17.242;2022-11-25T01:04:38;1002.50;;;6.32;75.10
76026;BME280;64721;51.084;17.242;2022-11-25T01:06:36;1002.45;;;6.32;74.97
76026;BME280;64721;51.084;17.242;2022-11-25T01:08:55;1002.46;;;6.30;75.05
76026;BME280;64721;51.084;17.242;2022-11-25T01:10:39;1002.49;;;6.49;74.91
76026;BME280;64721;51.084;17.242;2022-11-25T01:12:38;1002.51;;;6.28;75.41
76026;BME280;64721;51.084;17.242;2022-11-25T01:16:17;1002.53;;;6.24;75.72
76026;BME280;64721;51.084;17.242;2022-11-25T01:18:56;1002.52;;;6.14;76.36
76026;BME280;64721;51.084;17.242;2022-11-25T01:20:40;1002.54;;;6.20;76.59
76026;BME280;64721;51.084;17.242;2022-11-25T01:22:25;1002.51;;;6.46;75.49
76026;BME280;64721;51.084;17.242;2022-11-25T01:24:18;1002.55;;;6.36;75.50
76026;BME280;64721;51.084;17.242;2022-11-25T01:26:05;1002.59;;;6.32;75.84
76026;BME280;64721;51.084;17.242;2022-11-25T01:28:04;1002.58;;;6.31;75.88
76026;BME280;64721;51.084;17.242;2022-11-25T01:30:01;1002.54;;;6.28;76.16
76026;BME280;64721;51.084;17.242;2022-11-25T01:31:45;1002.54;;;6.42;76.03
76026;BME280;64721;51.084;17.242;2022-11-25T01:34:11;1002.53;;;6.54;75.87
76026;BME280;64721;51.084;17.242;2022-11-25T01:36:11;1002.49;;;6.79;75.21
76026;BME280;64721;51.084;17.242;2022-11-25T01:37:55;1002.52;;;6.90;74.83
76026;BME280;64721;51.084;17.242;2022-11-25T01:39:55;1002.56;;;6.91;74.57
76026;BME280;64721;51.084;17.242;2022-11-25T01:42:46;1002.54;;;6.88;74.74
76026;BME280;64721;51.084;17.242;2022-11-25T01:45:06;1002.55;;;6.94;74.69
76026;BME280;64721;51.084;17.242;2022-11-25T01:47:23;1002.52;;;6.94;74.91
76026;BME280;64721;51.084;17.242;2022-11-25T01:49:39;1002.54;;;6.89;75.12
76026;BME280;64721;51.084;17.242;2022-11-25T01:51:23;1002.52;;;7.02;74.78
76026;BME280;64721;51.084;17.242;2022-11-25T01:53:42;1002.52;;;6.79;75.12
76026;BME280;64721;51.084;17.242;2022-11-25T01:55:58;1002.54;;;6.91;75.17
76026;BME280;64721;51.084;17.242;2022-11-25T01:58:07;1002.54;;;7.04;74.59
76026;BME280;64721;51.084;17.242;2022-11-25T02:02:26;1002.56;;;7.02;74.67
76026;BME280;64721;51.084;17.242;2022-11-25T02:04:26;1002.61;;;7.08;74.52
